Latest Coastal Weather Observations for Alva Beach

IDQ60701

Issued at 2:51 pm EST Wednesday 29 July 2015 (issued every 10 minutes, with the page automatically refreshed every 10 minutes)

About coastal observations | Map of coastal stations | Coastal observations for QLD | Marine services | Other Formats
Station Details ID: 033295 Name: ALVA BEACH Lat: -19.46 Lon: 147.48 Height: 7.5 m
Data from the previous 72 hours. | See also: Recent months at Alva Beach
Date/Time
EST
Temp

°C
Wind Pressure Rain
since 9am
mm
Weather Cloud Vis
km
Sea
Height
m
Swell
Dir
 
Speed
knots
Gust
knots
hPa Trend Height
m
Period
s
Dir
29/02:30pm 24.0 ESE 17 26 1021.5 - 0.0 - - - - - - -
29/02:00pm 24.3 ESE 14 22 1021.9 - 0.0 - - - - - - -
29/01:30pm 24.7 ESE 15 22 1022.0 - 0.0 - - - - - - -
29/01:00pm 24.8 ESE 13 21 1022.4 - 0.0 - - - - - - -
29/12:30pm 24.7 ESE 12 19 1023.0 - 0.0 - - - - - - -
29/12:00pm 24.6 ESE 13 20 1023.7 - 0.0 - - - - - - -
29/11:30am 24.4 ESE 13 21 1024.1 - 0.0 - - - - - - -
29/11:00am 22.9 SE 16 22 1024.5 - 0.0 - - - - - - -
29/10:30am 22.3 SE 15 24 1024.5 - 0.0 - - - - - - -
29/10:00am 22.6 SE 13 21 1024.9 - 0.0 - - - - - - -
29/09:30am 19.9 SSE 5 10 1025.0 - 0.0 - - - - - - -
29/09:00am 18.5 S 5 9 1024.9 - 0.0 - - - - - - -
29/08:30am 17.8 SSW 5 7 1024.6 - 0.0 - - - - - - -
29/08:00am 17.1 SSW 5 8 1024.5 - 0.0 - - - - - - -
29/07:30am 17.3 SSW 5 8 1024.1 - 0.0 - - - - - - -
29/07:00am 17.1 S 5 8 1023.7 - 0.0 - - - - - - -
29/06:30am 16.6 SSW 6 9 1023.6 - 0.0 - - - - - - -
29/06:00am 16.3 SSW 6 8 1023.3 - 0.0 - - - - - - -
29/05:30am 16.4 SSW 6 9 1023.2 - 0.0 - - - - - - -
29/05:00am 16.5 SSW 6 11 1023.0 - 0.0 - - - - - - -
29/04:30am 16.7 SSW 5 8 1022.7 - 0.0 - - - - - - -
29/04:00am 17.4 S 5 7 1022.4 - 0.0 - - - - - - -
29/03:30am 18.4 S 6 10 1022.6 - 0.0 - - - - - - -
29/03:00am 18.8 SSE 5 10 1022.7 - 0.0 - - - - - - -
29/02:30am 19.5 SE 10 20 1022.9 - 0.0 - - - - - - -
29/02:00am 19.9 SE 12 21 1023.1 - 0.0 - - - - - - -
29/01:30am 20.0 SE 12 20 1023.3 - 0.0 - - - - - - -
29/01:00am 19.8 SE 10 16 1023.6 - 0.0 - - - - - - -
29/12:30am 19.8 SE 11 17 1023.8 - 0.0 - - - - - - -
29/12:00am 20.1 SE 12 20 1023.8 - 0.0 - - - - - - -
 
Date/Time
EST
Temp

°C
Wind Pressure Rain
since 9am
mm
Weather Cloud Vis
km
Sea
Height
m
Swell
Dir
 
Speed
knots
Gust
knots
hPa Trend Height
m
Period
s
Dir
28/11:30pm 20.1 SE 13 19 1023.9 - 0.0 - - - - - - -
28/11:00pm 20.1 SE 15 23 1024.0 - 0.0 - - - - - - -
28/10:30pm 20.2 SE 14 19 1024.1 - 0.0 - - - - - - -
28/10:00pm 20.4 ESE 14 21 1024.0 - 0.0 - - - - - - -
28/09:30pm 20.6 ESE 12 20 1023.9 - 0.0 - - - - - - -
28/09:00pm 21.0 ESE 11 20 1023.9 - 0.0 - - - - - - -
28/08:30pm 21.1 ESE 12 18 1023.8 - 0.0 - - - - - - -
28/08:00pm 21.4 ESE 12 18 1023.6 - 0.0 - - - - - - -
28/07:30pm 21.7 ESE 15 21 1023.0 - 0.0 - - - - - - -
28/07:00pm 21.9 E 15 21 1022.8 - 0.0 - - - - - - -
28/06:30pm 21.9 E 15 23 1022.4 - 0.0 - - - - - - -
28/06:00pm 22.0 E 15 21 1022.1 - 0.0 - - - - - - -
28/05:30pm 21.9 E 16 22 1021.8 - 0.0 - - - - - - -
28/05:00pm 22.2 E 15 21 1021.6 - 0.0 - - - - - - -
28/04:30pm 22.7 E 14 21 1021.3 - 0.0 - - - - - - -
28/04:00pm 22.7 E 15 19 1021.0 - 0.0 - - - - - - -
28/03:30pm 22.9 E 14 19 1021.0 - 0.0 - - - - - - -
28/03:00pm 23.7 E 15 21 1021.1 - 0.0 - - - - - - -
28/02:30pm 24.7 ESE 14 21 1021.1 - 0.0 - - - - - - -
28/02:00pm 25.1 ESE 14 21 1021.3 - 0.0 - - - - - - -
28/01:30pm 24.3 ESE 14 21 1021.7 - 0.0 - - - - - - -
28/01:00pm 24.4 ESE 12 17 1022.1 - 0.0 - - - - - - -
28/12:30pm 24.1 ESE 12 21 1022.6 - 0.0 - - - - - - -
28/12:00pm 25.6 ESE 12 20 1022.8 - 0.0 - - - - - - -
28/11:30am 24.0 ESE 16 23 1023.2 - 0.0 - - - - - - -
28/11:00am 23.2 SE 14 22 1023.5 - 0.0 - - - - - - -
28/10:30am 23.0 SE 9 15 1023.7 - 0.0 - - - - - - -
28/10:00am 22.7 SE 10 15 1023.7 - 0.0 - - - - - - -
28/09:30am 23.6 SE 8 14 1023.6 - 0.0 - - - - - - -
28/09:00am 22.9 SSE 8 15 1023.3 - 0.2 - - - - - - -
28/08:30am 22.5 SSE 6 10 1023.1 - 0.2 - - - - - - -
28/08:00am 21.3 S 5 9 1022.9 - 0.2 - - - - - - -
28/07:30am 20.8 SSE 6 10 1022.6 - 0.2 - - - - - - -
28/07:00am 20.4 S 5 7 1022.4 - 0.2 - - - - - - -
28/06:30am 20.3 S 4 5 1022.0 - 0.2 - - - - - - -
28/06:00am 21.6 SE 8 15 1021.7 - 0.2 - - - - - - -
28/05:30am 21.6 SE 7 12 1021.6 - 0.2 - - - - - - -
28/05:00am 21.6 SE 9 14 1021.4 - 0.2 - - - - - - -
28/04:30am 21.6 SE 9 15 1021.6 - 0.2 - - - - - - -
28/04:00am 21.4 SE 7 13 1021.6 - 0.2 - - - - - - -
28/03:30am 21.5 ESE 7 12 1021.6 - 0.0 - - - - - - -
28/03:00am 21.4 ESE 7 11 1021.6 - 0.0 - - - - - - -
28/02:30am 21.7 SE 9 13 1021.7 - 0.0 - - - - - - -
28/02:00am 21.7 SE 9 14 1021.9 - 0.0 - - - - - - -
28/01:30am 21.6 ESE 6 11 1022.0 - 0.0 - - - - - - -
28/01:00am 21.8 ESE 7 11 1022.1 - 0.0 - - - - - - -
28/12:30am 22.0 ESE 8 11 1022.2 - 0.0 - - - - - - -
28/12:00am 22.0 ESE 8 12 1022.3 - 0.0 - - - - - - -
 
Date/Time
EST
Temp

°C
Wind Pressure Rain
since 9am
mm
Weather Cloud Vis
km
Sea
Height
m
Swell
Dir
 
Speed
knots
Gust
knots
hPa Trend Height
m
Period
s
Dir
27/11:30pm 22.2 E 9 12 1022.5 - 0.0 - - - - - - -
27/11:00pm 22.5 E 9 12 1022.5 - 0.0 - - - - - - -
27/10:30pm 22.1 ESE 5 8 1022.7 - 0.0 - - - - - - -
27/10:00pm 22.1 ESE 5 9 1022.5 - 0.0 - - - - - - -
27/09:30pm 22.2 E 5 7 1022.4 - 0.0 - - - - - - -
27/09:00pm 22.5 E 5 7 1022.5 - 0.0 - - - - - - -
27/08:30pm 22.5 E 5 7 1022.4 - 0.0 - - - - - - -
27/08:00pm 22.6 E 7 9 1021.9 - 0.0 - - - - - - -
27/07:30pm 22.7 ENE 9 12 1021.4 - 0.0 - - - - - - -
27/07:00pm 22.8 ENE 12 14 1021.1 - 0.0 - - - - - - -
27/06:30pm 22.8 ENE 9 11 1020.8 - 0.0 - - - - - - -
27/06:00pm 22.9 ENE 10 13 1020.3 - 0.0 - - - - - - -
27/05:30pm 23.1 ENE 11 13 1019.8 - 0.0 - - - - - - -
27/05:00pm 23.1 ENE 11 14 1019.5 - 0.0 - - - - - - -
27/04:30pm 23.7 ENE 11 13 1019.1 - 0.0 - - - - - - -
27/04:00pm 24.1 ENE 11 15 1018.9 - 0.0 - - - - - - -
27/03:30pm 24.3 ENE 10 13 1018.8 - 0.0 - - - - - - -
27/03:00pm 24.2 ENE 11 14 1018.9 - 0.0 - - - - - - -
27/02:30pm 24.1 ENE 11 13 1019.1 - 0.0 - - - - - - -
27/02:00pm 24.2 ENE 11 15 1019.3 - 0.0 - - - - - - -
27/01:30pm 24.1 ENE 11 14 1019.7 - 0.0 - - - - - - -
27/01:00pm 23.9 ENE 10 13 1020.2 - 0.0 - - - - - - -
27/12:30pm 23.7 ENE 10 13 1020.8 - 0.0 - - - - - - -
27/12:00pm 24.2 E 9 12 1021.3 - 0.0 - - - - - - -
27/11:30am 24.3 E 8 10 1021.8 - 0.0 - - - - - - -
27/11:00am 24.2 E 8 10 1022.1 - 0.0 - - - - - - -
27/10:30am 24.3 E 6 8 1022.5 - 0.0 - - - - - - -
27/10:00am 24.6 ESE 4 8 1022.8 - 0.0 - - - - - - -
27/09:30am 23.6 S 3 6 1022.9 - 0.0 - - - - - - -
27/09:00am 21.5 S 4 7 1022.7 - 0.2 - - - - - - -
27/08:30am 20.7 S 4 7 1022.6 - 0.2 - - - - - - -
27/08:00am 20.0 SSW 5 7 1022.3 - 0.2 - - - - - - -
27/07:30am 19.2 SSW 5 7 1022.1 - 0.2 - - - - - - -
27/07:00am 18.2 SSW 5 7 1021.9 - 0.2 - - - - - - -
27/06:30am 18.3 SSW 5 9 1021.6 - 0.2 - - - - - - -
27/06:00am 17.7 SSW 5 7 1021.1 - 0.2 - - - - - - -
27/05:30am 17.5 SSW 4 6 1020.8 - 0.2 - - - - - - -
27/05:00am 17.4 SSW 4 5 1020.6 - 0.2 - - - - - - -
27/04:30am 17.5 SSW 4 5 1020.6 - 0.2 - - - - - - -
27/04:00am 17.5 SSW 4 5 1020.6 - 0.2 - - - - - - -
27/03:30am 17.6 SSW 4 5 1020.7 - 0.2 - - - - - - -
27/03:00am 17.6 SSW 4 5 1020.8 - 0.0 - - - - - - -
27/02:30am 18.1 S 4 5 1020.9 - 0.0 - - - - - - -
27/02:00am 21.0 SE 3 5 1021.1 - 0.0 - - - - - - -
27/01:30am 20.8 ESE 4 5 1021.3 - 0.0 - - - - - - -
27/01:00am 20.8 E 1 3 1021.5 - 0.0 - - - - - - -
27/12:30am 21.3 E 3 4 1021.8 - 0.0 - - - - - - -
27/12:00am 21.8 E 4 5 1021.9 - 0.0 - - - - - - -
 
Date/Time
EST
Temp

°C
Wind Pressure Rain
since 9am
mm
Weather Cloud Vis
km
Sea
Height
m
Swell
Dir
 
Speed
knots
Gust
knots
hPa Trend Height
m
Period
s
Dir
26/11:30pm 21.5 E 4 5 1021.9 - 0.0 - - - - - - -
26/11:00pm 21.1 ENE 4 5 1022.2 - 0.0 - - - - - - -
26/10:30pm 21.8 ENE 4 5 1022.3 - 0.0 - - - - - - -
26/10:00pm 20.8 ENE 4 5 1022.3 - 0.0 - - - - - - -
26/09:30pm 22.0 NE 4 5 1022.1 - 0.0 - - - - - - -
26/09:00pm 22.3 NE 4 6 1021.9 - 0.0 - - - - - - -
26/08:30pm 22.4 NE 4 6 1021.6 - 0.0 - - - - - - -
26/08:00pm 22.4 NE 5 6 1021.2 - 0.0 - - - - - - -
26/07:30pm 22.5 NE 5 6 1021.0 - 0.0 - - - - - - -
26/07:00pm 22.6 NE 7 8 1020.4 - 0.0 - - - - - - -
26/06:30pm 22.7 NE 9 10 1019.8 - 0.0 - - - - - - -
26/06:00pm 22.7 NE 10 11 1019.2 - 0.0 - - - - - - -
26/05:30pm 22.8 ENE 9 11 1018.8 - 0.0 - - - - - - -
26/05:00pm 23.0 ENE 10 12 1018.5 - 0.0 - - - - - - -
26/04:30pm 23.4 ENE 9 11 1018.0 - 0.0 - - - - - - -
26/04:00pm 23.8 ENE 11 12 1018.0 - 0.0 - - - - - - -
26/03:30pm 23.8 ENE 9 12 1017.9 - 0.0 - - - - - - -
26/03:00pm 24.0 E 8 11 1018.0 - 0.0 - - - - - - -

Other Formats:

Comma delimited format used in spreadsheet applications
http://www.bom.gov.au/fwo/IDQ60701/IDQ60701.95296.axf

JavaScript Object Notation format (JSON) in row-major order
http://www.bom.gov.au/fwo/IDQ60701/IDQ60701.95296.json